sensor_id;sensor_type;location;lat;lon;timestamp;P1;durP1;ratioP1;P2;durP2;ratioP2
12721;SDS011;6425;50.316;8.114;2023-10-13T00:00:00;10.9;;;7.3;;
12721;SDS011;6425;50.316;8.114;2023-10-13T00:03:00;10.9;;;7.3;;
12721;SDS011;6425;50.316;8.114;2023-10-13T00:06:00;10.7;;;8.3;;
12721;SDS011;6425;50.316;8.114;2023-10-13T00:09:00;11.1;;;8.1;;
12721;SDS011;6425;50.316;8.114;2023-10-13T00:12:00;11.1;;;8.1;;
12721;SDS011;6425;50.316;8.114;2023-10-13T00:15:00;9.5;;;7.8;;
12721;SDS011;6425;50.316;8.114;2023-10-13T00:18:00;9.5;;;7.8;;
12721;SDS011;6425;50.316;8.114;2023-10-13T00:21:00;9.5;;;7.6;;
12721;SDS011;6425;50.316;8.114;2023-10-13T00:24:00;11.7;;;8.4;;
12721;SDS011;6425;50.316;8.114;2023-10-13T00:27:00;11.7;;;8.4;;
12721;SDS011;6425;50.316;8.114;2023-10-13T00:30:00;12.9;;;7.9;;
12721;SDS011;6425;50.316;8.114;2023-10-13T00:33:00;12.9;;;7.9;;
12721;SDS011;6425;50.316;8.114;2023-10-13T00:36:00;10.6;;;7.7;;
12721;SDS011;6425;50.316;8.114;2023-10-13T00:39:00;11;;;7.9;;
12721;SDS011;6425;50.316;8.114;2023-10-13T00:42:00;11;;;7.9;;
12721;SDS011;6425;50.316;8.114;2023-10-13T00:45:00;9.6;;;7.3;;
12721;SDS011;6425;50.316;8.114;2023-10-13T00:48:00;9.6;;;7.3;;
12721;SDS011;6425;50.316;8.114;2023-10-13T00:51:00;11.4;;;7.5;;
12721;SDS011;6425;50.316;8.114;2023-10-13T00:54:01;12.9;;;7.7;;
12721;SDS011;6425;50.316;8.114;2023-10-13T00:57:00;12.9;;;7.7;;
12721;SDS011;6425;50.316;8.114;2023-10-13T01:00:00;12.9;;;8.3;;
12721;SDS011;6425;50.316;8.114;2023-10-13T01:03:00;11.9;;;8.1;;
12721;SDS011;6425;50.316;8.114;2023-10-13T01:06:00;9.1;;;7.7;;
12721;SDS011;6425;50.316;8.114;2023-10-13T01:09:01;12.7;;;7.7;;
12721;SDS011;6425;50.316;8.114;2023-10-13T01:12:00;12.7;;;7.7;;
12721;SDS011;6425;50.316;8.114;2023-10-13T01:15:00;11.5;;;7.3;;
12721;SDS011;6425;50.316;8.114;2023-10-13T01:18:07;10.2;;;7.3;;
12721;SDS011;6425;50.316;8.114;2023-10-13T01:21:00;9.8;;;7.4;;
12721;SDS011;6425;50.316;8.114;2023-10-13T01:24:00;10.4;;;6.8;;
12721;SDS011;6425;50.316;8.114;2023-10-13T01:27:00;10.4;;;6.8;;
12721;SDS011;6425;50.316;8.114;2023-10-13T01:30:00;8.9;;;7.1;;
12721;SDS011;6425;50.316;8.114;2023-10-13T01:33:00;13.6;;;8;;
12721;SDS011;6425;50.316;8.114;2023-10-13T01:36:00;13.6;;;8;;
12721;SDS011;6425;50.316;8.114;2023-10-13T01:39:00;11.1;;;7.8;;
12721;SDS011;6425;50.316;8.114;2023-10-13T01:42:00;11.1;;;7.8;;
12721;SDS011;6425;50.316;8.114;2023-10-13T01:45:00;10.9;;;7.8;;
12721;SDS011;6425;50.316;8.114;2023-10-13T01:48:00;9.8;;;7.9;;
12721;SDS011;6425;50.316;8.114;2023-10-13T01:51:00;9.8;;;7.9;;
12721;SDS011;6425;50.316;8.114;2023-10-13T01:54:00;10.1;;;7;;
12721;SDS011;6425;50.316;8.114;2023-10-13T01:57:00;10.1;;;7;;
12721;SDS011;6425;50.316;8.114;2023-10-13T02:00:00;9.7;;;7.6;;
12721;SDS011;6425;50.316;8.114;2023-10-13T02:03:00;11.9;;;7.5;;
12721;SDS011;6425;50.316;8.114;2023-10-13T02:06:00;11.9;;;7.5;;
12721;SDS011;6425;50.316;8.114;2023-10-13T02:09:00;9.5;;;6.6;;
12721;SDS011;6425;50.316;8.114;2023-10-13T02:12:00;9.5;;;6.6;;
12721;SDS011;6425;50.316;8.114;2023-10-13T02:15:00;10.4;;;7;;
12721;SDS011;6425;50.316;8.114;2023-10-13T02:18:00;10;;;7.1;;
12721;SDS011;6425;50.316;8.114;2023-10-13T02:21:02;10;;;7.1;;
12721;SDS011;6425;50.316;8.114;2023-10-13T02:24:00;9.8;;;7.2;;
12721;SDS011;6425;50.316;8.114;2023-10-13T02:27:00;9.8;;;7.2;;
12721;SDS011;6425;50.316;8.114;2023-10-13T02:30:00;8.6;;;6.6;;
12721;SDS011;6425;50.316;8.114;2023-10-13T02:33:00;8.4;;;6.3;;
12721;SDS011;6425;50.316;8.114;2023-10-13T02:36:00;8.4;;;6.3;;
12721;SDS011;6425;50.316;8.114;2023-10-13T02:39:00;8.9;;;6.4;;
12721;SDS011;6425;50.316;8.114;2023-10-13T02:42:00;8.9;;;6.4;;
12721;SDS011;6425;50.316;8.114;2023-10-13T02:45:00;10.8;;;6.9;;
12721;SDS011;6425;50.316;8.114;2023-10-13T02:48:00;10.1;;;7;;
12721;SDS011;6425;50.316;8.114;2023-10-13T02:51:00;10.1;;;7;;
12721;SDS011;6425;50.316;8.114;2023-10-13T02:54:00;12.4;;;7.5;;
12721;SDS011;6425;50.316;8.114;2023-10-13T02:57:00;12.4;;;7.5;;
12721;SDS011;6425;50.316;8.114;2023-10-13T03:00:00;9.3;;;6.8;;
12721;SDS011;6425;50.316;8.114;2023-10-13T03:03:00;10.2;;;6.6;;
12721;SDS011;6425;50.316;8.114;2023-10-13T03:06:00;10.2;;;6.6;;
12721;SDS011;6425;50.316;8.114;2023-10-13T03:09:00;12.6;;;6.7;;
12721;SDS011;6425;50.316;8.114;2023-10-13T03:12:00;12.6;;;6.7;;
12721;SDS011;6425;50.316;8.114;2023-10-13T03:15:00;11;;;7;;
12721;SDS011;6425;50.316;8.114;2023-10-13T03:18:00;9.7;;;7;;
12721;SDS011;6425;50.316;8.114;2023-10-13T03:21:00;9.7;;;7;;
12721;SDS011;6425;50.316;8.114;2023-10-13T03:24:00;10.6;;;7.2;;
12721;SDS011;6425;50.316;8.114;2023-10-13T03:27:00;10.6;;;7.2;;
12721;SDS011;6425;50.316;8.114;2023-10-13T03:30:00;12.4;;;7.1;;
12721;SDS011;6425;50.316;8.114;2023-10-13T03:33:00;11;;;7.1;;
12721;SDS011;6425;50.316;8.114;2023-10-13T03:36:00;11;;;7.1;;
12721;SDS011;6425;50.316;8.114;2023-10-13T03:39:00;9.6;;;6.4;;
12721;SDS011;6425;50.316;8.114;2023-10-13T03:42:00;9.6;;;6.4;;
12721;SDS011;6425;50.316;8.114;2023-10-13T03:45:00;9.9;;;6.8;;
12721;SDS011;6425;50.316;8.114;2023-10-13T03:48:00;10.8;;;7.1;;
12721;SDS011;6425;50.316;8.114;2023-10-13T03:51:00;10.8;;;7.1;;
12721;SDS011;6425;50.316;8.114;2023-10-13T03:54:00;12.1;;;7.4;;
12721;SDS011;6425;50.316;8.114;2023-10-13T03:57:00;12.1;;;7.4;;
12721;SDS011;6425;50.316;8.114;2023-10-13T04:00:00;11;;;6.7;;
12721;SDS011;6425;50.316;8.114;2023-10-13T04:03:00;10.8;;;6.6;;
12721;SDS011;6425;50.316;8.114;2023-10-13T04:06:00;10.8;;;6.6;;
12721;SDS011;6425;50.316;8.114;2023-10-13T04:09:00;12.3;;;6.9;;
12721;SDS011;6425;50.316;8.114;2023-10-13T04:12:00;12.3;;;6.9;;
12721;SDS011;6425;50.316;8.114;2023-10-13T04:15:00;14.5;;;7.2;;
12721;SDS011;6425;50.316;8.114;2023-10-13T04:18:00;12.7;;;6.5;;
12721;SDS011;6425;50.316;8.114;2023-10-13T04:21:00;12.7;;;6.5;;
12721;SDS011;6425;50.316;8.114;2023-10-13T04:24:00;10.6;;;6.7;;
12721;SDS011;6425;50.316;8.114;2023-10-13T04:27:00;10.6;;;6.7;;
12721;SDS011;6425;50.316;8.114;2023-10-13T04:30:00;12;;;6.9;;
12721;SDS011;6425;50.316;8.114;2023-10-13T04:33:00;12.6;;;7;;
12721;SDS011;6425;50.316;8.114;2023-10-13T04:36:00;12.6;;;7;;
12721;SDS011;6425;50.316;8.114;2023-10-13T04:39:00;12.3;;;6.4;;
12721;SDS011;6425;50.316;8.114;2023-10-13T04:42:00;12.3;;;6.4;;
12721;SDS011;6425;50.316;8.114;2023-10-13T04:45:00;12.8;;;6.4;;
12721;SDS011;6425;50.316;8.114;2023-10-13T04:48:00;11;;;6.9;;
12721;SDS011;6425;50.316;8.114;2023-10-13T04:51:00;11;;;6.9;;
12721;SDS011;6425;50.316;8.114;2023-10-13T04:54:00;9.9;;;6.8;;
12721;SDS011;6425;50.316;8.114;2023-10-13T04:57:00;9.9;;;6.8;;
12721;SDS011;6425;50.316;8.114;2023-10-13T05:00:00;13.7;;;6.8;;
12721;SDS011;6425;50.316;8.114;2023-10-13T05:03:00;12.1;;;7.8;;
12721;SDS011;6425;50.316;8.114;2023-10-13T05:06:00;12.1;;;7.8;;
12721;SDS011;6425;50.316;8.114;2023-10-13T05:09:00;12.4;;;7.3;;
12721;SDS011;6425;50.316;8.114;2023-10-13T05:12:00;12.4;;;7.3;;
12721;SDS011;6425;50.316;8.114;2023-10-13T05:15:00;13.4;;;6.8;;
12721;SDS011;6425;50.316;8.114;2023-10-13T05:18:00;12.9;;;7.2;;
12721;SDS011;6425;50.316;8.114;2023-10-13T05:21:00;12.9;;;7.2;;
12721;SDS011;6425;50.316;8.114;2023-10-13T05:24:00;14.2;;;7.3;;
12721;SDS011;6425;50.316;8.114;2023-10-13T05:27:00;14.2;;;7.3;;
12721;SDS011;6425;50.316;8.114;2023-10-13T05:30:00;14;;;7.1;;
12721;SDS011;6425;50.316;8.114;2023-10-13T05:33:00;12.7;;;6.7;;
12721;SDS011;6425;50.316;8.114;2023-10-13T05:36:00;12.7;;;6.7;;
12721;SDS011;6425;50.316;8.114;2023-10-13T05:39:00;13.9;;;6.5;;
12721;SDS011;6425;50.316;8.114;2023-10-13T05:42:00;13.9;;;6.5;;
12721;SDS011;6425;50.316;8.114;2023-10-13T05:45:00;14.1;;;7.3;;
12721;SDS011;6425;50.316;8.114;2023-10-13T05:48:00;11.6;;;6.7;;
12721;SDS011;6425;50.316;8.114;2023-10-13T05:51:00;11.6;;;6.7;;
12721;SDS011;6425;50.316;8.114;2023-10-13T05:54:00;13.7;;;6.6;;
12721;SDS011;6425;50.316;8.114;2023-10-13T05:57:00;13.7;;;6.6;;
12721;SDS011;6425;50.316;8.114;2023-10-13T06:00:00;12.9;;;6.5;;
12721;SDS011;6425;50.316;8.114;2023-10-13T06:03:00;15.5;;;6.4;;
12721;SDS011;6425;50.316;8.114;2023-10-13T06:06:00;15.5;;;6.4;;
12721;SDS011;6425;50.316;8.114;2023-10-13T06:09:00;13;;;6.4;;
12721;SDS011;6425;50.316;8.114;2023-10-13T06:12:00;13;;;6.4;;
12721;SDS011;6425;50.316;8.114;2023-10-13T06:15:00;13.2;;;6.8;;
12721;SDS011;6425;50.316;8.114;2023-10-13T06:18:00;11.8;;;6.5;;
12721;SDS011;6425;50.316;8.114;2023-10-13T06:21:00;11.8;;;6.5;;
12721;SDS011;6425;50.316;8.114;2023-10-13T06:24:00;11.3;;;6.5;;
12721;SDS011;6425;50.316;8.114;2023-10-13T06:27:00;11.8;;;6.6;;
12721;SDS011;6425;50.316;8.114;2023-10-13T06:30:00;13.4;;;7;;
12721;SDS011;6425;50.316;8.114;2023-10-13T06:33:00;15;;;7.4;;
12721;SDS011;6425;50.316;8.114;2023-10-13T06:36:00;15;;;7.4;;
12721;SDS011;6425;50.316;8.114;2023-10-13T06:39:00;15.9;;;7.1;;
12721;SDS011;6425;50.316;8.114;2023-10-13T06:42:00;15.1;;;7.4;;
12721;SDS011;6425;50.316;8.114;2023-10-13T06:45:00;15.1;;;7.4;;
12721;SDS011;6425;50.316;8.114;2023-10-13T06:48:00;17;;;7;;
12721;SDS011;6425;50.316;8.114;2023-10-13T06:51:00;17;;;7;;
12721;SDS011;6425;50.316;8.114;2023-10-13T06:54:00;16.2;;;6.8;;
12721;SDS011;6425;50.316;8.114;2023-10-13T06:57:00;15;;;6.7;;
12721;SDS011;6425;50.316;8.114;2023-10-13T07:00:01;15;;;6.7;;
12721;SDS011;6425;50.316;8.114;2023-10-13T07:03:01;15.9;;;6.8;;
12721;SDS011;6425;50.316;8.114;2023-10-13T07:06:05;15.9;;;6.8;;
12721;SDS011;6425;50.316;8.114;2023-10-13T07:09:01;12.1;;;6.9;;
12721;SDS011;6425;50.316;8.114;2023-10-13T07:12:01;9.5;;;6.1;;
12721;SDS011;6425;50.316;8.114;2023-10-13T07:15:00;9.5;;;6.1;;
12721;SDS011;6425;50.316;8.114;2023-10-13T07:18:00;13.2;;;5.8;;
12721;SDS011;6425;50.316;8.114;2023-10-13T07:21:00;13.2;;;5.8;;
12721;SDS011;6425;50.316;8.114;2023-10-13T07:24:00;11.1;;;5.6;;
12721;SDS011;6425;50.316;8.114;2023-10-13T07:27:00;13;;;6.2;;
12721;SDS011;6425;50.316;8.114;2023-10-13T07:30:00;13;;;6.2;;
12721;SDS011;6425;50.316;8.114;2023-10-13T07:33:00;11.8;;;5.8;;
12721;SDS011;6425;50.316;8.114;2023-10-13T07:36:00;11.8;;;5.8;;
12721;SDS011;6425;50.316;8.114;2023-10-13T07:39:00;11.4;;;5.8;;
12721;SDS011;6425;50.316;8.114;2023-10-13T07:42:00;12.4;;;5.6;;
12721;SDS011;6425;50.316;8.114;2023-10-13T07:45:00;12.4;;;5.6;;
12721;SDS011;6425;50.316;8.114;2023-10-13T07:48:00;11.7;;;5.7;;
12721;SDS011;6425;50.316;8.114;2023-10-13T07:51:00;11.7;;;5.7;;
12721;SDS011;6425;50.316;8.114;2023-10-13T07:54:00;12.6;;;5.5;;
12721;SDS011;6425;50.316;8.114;2023-10-13T07:57:00;11;;;5.5;;
12721;SDS011;6425;50.316;8.114;2023-10-13T08:00:00;11;;;5.5;;
12721;SDS011;6425;50.316;8.114;2023-10-13T08:03:00;14.3;;;5.4;;
12721;SDS011;6425;50.316;8.114;2023-10-13T08:06:00;14.3;;;5.4;;
12721;SDS011;6425;50.316;8.114;2023-10-13T08:09:00;9.8;;;5.3;;
12721;SDS011;6425;50.316;8.114;2023-10-13T08:12:00;9.9;;;5;;
12721;SDS011;6425;50.316;8.114;2023-10-13T08:15:00;9.9;;;5;;
12721;SDS011;6425;50.316;8.114;2023-10-13T08:18:00;8.2;;;4.7;;
12721;SDS011;6425;50.316;8.114;2023-10-13T08:21:00;8.2;;;4.7;;
12721;SDS011;6425;50.316;8.114;2023-10-13T08:24:00;12;;;5.1;;
12721;SDS011;6425;50.316;8.114;2023-10-13T08:27:00;8.6;;;4.8;;
12721;SDS011;6425;50.316;8.114;2023-10-13T08:30:00;8.6;;;4.8;;
12721;SDS011;6425;50.316;8.114;2023-10-13T08:33:00;8.2;;;5;;
12721;SDS011;6425;50.316;8.114;2023-10-13T08:36:00;8.2;;;5;;
12721;SDS011;6425;50.316;8.114;2023-10-13T08:39:00;11;;;4.9;;
12721;SDS011;6425;50.316;8.114;2023-10-13T08:42:00;10.2;;;5;;
12721;SDS011;6425;50.316;8.114;2023-10-13T08:45:00;10.2;;;5;;
12721;SDS011;6425;50.316;8.114;2023-10-13T08:48:00;12;;;5.4;;
12721;SDS011;6425;50.316;8.114;2023-10-13T08:51:00;12;;;5.4;;
12721;SDS011;6425;50.316;8.114;2023-10-13T08:54:00;10.7;;;5.6;;
12721;SDS011;6425;50.316;8.114;2023-10-13T08:57:00;11;;;5.3;;
12721;SDS011;6425;50.316;8.114;2023-10-13T09:00:00;11;;;5.3;;
12721;SDS011;6425;50.316;8.114;2023-10-13T09:03:03;9.5;;;5;;
12721;SDS011;6425;50.316;8.114;2023-10-13T09:06:00;9.5;;;5;;
12721;SDS011;6425;50.316;8.114;2023-10-13T09:09:03;11.9;;;5.6;;
12721;SDS011;6425;50.316;8.114;2023-10-13T09:12:00;11.3;;;5.5;;
12721;SDS011;6425;50.316;8.114;2023-10-13T09:15:00;11.3;;;5.5;;
12721;SDS011;6425;50.316;8.114;2023-10-13T09:18:00;9.2;;;5.5;;
12721;SDS011;6425;50.316;8.114;2023-10-13T09:21:00;9.2;;;5.5;;
12721;SDS011;6425;50.316;8.114;2023-10-13T09:24:00;10;;;5.4;;
12721;SDS011;6425;50.316;8.114;2023-10-13T09:27:00;8.9;;;5.2;;
12721;SDS011;6425;50.316;8.114;2023-10-13T09:30:00;8.9;;;5.2;;
12721;SDS011;6425;50.316;8.114;2023-10-13T09:33:00;8.4;;;5.7;;
12721;SDS011;6425;50.316;8.114;2023-10-13T09:36:00;8.4;;;5.7;;
12721;SDS011;6425;50.316;8.114;2023-10-13T09:39:00;10.2;;;5.7;;
12721;SDS011;6425;50.316;8.114;2023-10-13T09:42:00;10.3;;;5.7;;
12721;SDS011;6425;50.316;8.114;2023-10-13T09:45:00;10.3;;;5.7;;
12721;SDS011;6425;50.316;8.114;2023-10-13T09:48:01;7.8;;;5.6;;
12721;SDS011;6425;50.316;8.114;2023-10-13T09:51:01;7.8;;;5.6;;
12721;SDS011;6425;50.316;8.114;2023-10-13T09:54:00;11.9;;;5.6;;
12721;SDS011;6425;50.316;8.114;2023-10-13T09:57:00;8.2;;;5.3;;
12721;SDS011;6425;50.316;8.114;2023-10-13T10:00:02;8.2;;;5.3;;
12721;SDS011;6425;50.316;8.114;2023-10-13T10:03:00;10.8;;;5.5;;
12721;SDS011;6425;50.316;8.114;2023-10-13T10:06:00;10.8;;;5.5;;
12721;SDS011;6425;50.316;8.114;2023-10-13T10:09:07;8.5;;;5.7;;
12721;SDS011;6425;50.316;8.114;2023-10-13T10:12:03;11;;;5.6;;
12721;SDS011;6425;50.316;8.114;2023-10-13T10:15:05;11;;;5.6;;
12721;SDS011;6425;50.316;8.114;2023-10-13T10:18:00;11;;;5.8;;
12721;SDS011;6425;50.316;8.114;2023-10-13T10:21:03;11;;;5.8;;
12721;SDS011;6425;50.316;8.114;2023-10-13T10:24:00;8.1;;;5.5;;
12721;SDS011;6425;50.316;8.114;2023-10-13T10:27:00;8.5;;;6.2;;
12721;SDS011;6425;50.316;8.114;2023-10-13T10:30:00;8.5;;;6.2;;
12721;SDS011;6425;50.316;8.114;2023-10-13T10:33:00;8.2;;;5.7;;
12721;SDS011;6425;50.316;8.114;2023-10-13T10:36:00;8.2;;;5.7;;
12721;SDS011;6425;50.316;8.114;2023-10-13T10:39:00;9.3;;;6.2;;
12721;SDS011;6425;50.316;8.114;2023-10-13T10:42:07;10.4;;;5.9;;
12721;SDS011;6425;50.316;8.114;2023-10-13T10:45:00;10.4;;;5.9;;
12721;SDS011;6425;50.316;8.114;2023-10-13T10:48:00;8.7;;;5.9;;
12721;SDS011;6425;50.316;8.114;2023-10-13T10:51:00;8.7;;;5.9;;
12721;SDS011;6425;50.316;8.114;2023-10-13T10:54:00;9.1;;;5.6;;
12721;SDS011;6425;50.316;8.114;2023-10-13T10:57:00;8.9;;;6;;
12721;SDS011;6425;50.316;8.114;2023-10-13T11:00:00;8.9;;;6;;
12721;SDS011;6425;50.316;8.114;2023-10-13T11:03:00;8.2;;;6.3;;
12721;SDS011;6425;50.316;8.114;2023-10-13T11:06:00;8.2;;;6.3;;
12721;SDS011;6425;50.316;8.114;2023-10-13T11:09:02;9.4;;;6.3;;
12721;SDS011;6425;50.316;8.114;2023-10-13T11:12:08;11.6;;;6.2;;
12721;SDS011;6425;50.316;8.114;2023-10-13T11:15:00;11.6;;;6.2;;
12721;SDS011;6425;50.316;8.114;2023-10-13T11:18:00;9.4;;;6.2;;
12721;SDS011;6425;50.316;8.114;2023-10-13T11:21:00;9.4;;;6.2;;
12721;SDS011;6425;50.316;8.114;2023-10-13T11:24:00;7.4;;;6;;
12721;SDS011;6425;50.316;8.114;2023-10-13T11:27:00;10.2;;;6.7;;
12721;SDS011;6425;50.316;8.114;2023-10-13T11:30:00;10.2;;;6.7;;
12721;SDS011;6425;50.316;8.114;2023-10-13T11:33:00;8.7;;;6.3;;
12721;SDS011;6425;50.316;8.114;2023-10-13T11:36:00;8.7;;;6.3;;
12721;SDS011;6425;50.316;8.114;2023-10-13T11:39:00;8.7;;;5.8;;
12721;SDS011;6425;50.316;8.114;2023-10-13T11:42:00;7.1;;;6;;
12721;SDS011;6425;50.316;8.114;2023-10-13T11:45:00;7.1;;;6;;
12721;SDS011;6425;50.316;8.114;2023-10-13T11:48:00;8.9;;;6.1;;
12721;SDS011;6425;50.316;8.114;2023-10-13T11:51:00;8.9;;;6.1;;
12721;SDS011;6425;50.316;8.114;2023-10-13T11:54:00;8.6;;;5.8;;
12721;SDS011;6425;50.316;8.114;2023-10-13T11:57:00;8.8;;;5.9;;
12721;SDS011;6425;50.316;8.114;2023-10-13T12:00:00;8.8;;;5.9;;
12721;SDS011;6425;50.316;8.114;2023-10-13T12:03:00;8.2;;;5.8;;
12721;SDS011;6425;50.316;8.114;2023-10-13T12:06:00;8.2;;;5.8;;
12721;SDS011;6425;50.316;8.114;2023-10-13T12:09:00;13.6;;;6.4;;
12721;SDS011;6425;50.316;8.114;2023-10-13T12:12:00;9.8;;;6;;
12721;SDS011;6425;50.316;8.114;2023-10-13T12:15:00;9.8;;;6;;
12721;SDS011;6425;50.316;8.114;2023-10-13T12:18:00;9;;;5.8;;
12721;SDS011;6425;50.316;8.114;2023-10-13T12:21:07;9;;;5.8;;
12721;SDS011;6425;50.316;8.114;2023-10-13T12:24:00;9.3;;;5.7;;
12721;SDS011;6425;50.316;8.114;2023-10-13T12:27:00;9.5;;;5.6;;
12721;SDS011;6425;50.316;8.114;2023-10-13T12:30:00;9.5;;;5.6;;
12721;SDS011;6425;50.316;8.114;2023-10-13T12:33:00;9;;;5.4;;
12721;SDS011;6425;50.316;8.114;2023-10-13T12:36:00;9;;;5.4;;
12721;SDS011;6425;50.316;8.114;2023-10-13T12:39:00;10.5;;;6.1;;
12721;SDS011;6425;50.316;8.114;2023-10-13T12:42:00;7.7;;;5.1;;
12721;SDS011;6425;50.316;8.114;2023-10-13T12:45:00;7.7;;;5.1;;
12721;SDS011;6425;50.316;8.114;2023-10-13T12:48:00;10.6;;;5.8;;
12721;SDS011;6425;50.316;8.114;2023-10-13T12:51:00;10.6;;;5.8;;
12721;SDS011;6425;50.316;8.114;2023-10-13T12:54:00;8.4;;;5.5;;
12721;SDS011;6425;50.316;8.114;2023-10-13T12:57:00;13.8;;;5.9;;
12721;SDS011;6425;50.316;8.114;2023-10-13T13:00:00;13.8;;;5.9;;
12721;SDS011;6425;50.316;8.114;2023-10-13T13:03:00;11.5;;;5.6;;
12721;SDS011;6425;50.316;8.114;2023-10-13T13:06:00;11.5;;;5.6;;
12721;SDS011;6425;50.316;8.114;2023-10-13T13:09:00;6.9;;;5.4;;
12721;SDS011;6425;50.316;8.114;2023-10-13T13:12:00;7.6;;;5.1;;
12721;SDS011;6425;50.316;8.114;2023-10-13T13:15:00;7.6;;;5.1;;
12721;SDS011;6425;50.316;8.114;2023-10-13T13:18:00;8.8;;;5.3;;
12721;SDS011;6425;50.316;8.114;2023-10-13T13:21:00;8.8;;;5.3;;
12721;SDS011;6425;50.316;8.114;2023-10-13T13:24:00;8.1;;;4.9;;
12721;SDS011;6425;50.316;8.114;2023-10-13T13:27:00;6;;;4.5;;
12721;SDS011;6425;50.316;8.114;2023-10-13T13:30:00;6;;;4.5;;
12721;SDS011;6425;50.316;8.114;2023-10-13T13:33:00;9.1;;;5;;
12721;SDS011;6425;50.316;8.114;2023-10-13T13:36:00;9.1;;;5;;
12721;SDS011;6425;50.316;8.114;2023-10-13T13:39:00;9.8;;;5.2;;
12721;SDS011;6425;50.316;8.114;2023-10-13T13:42:00;6.7;;;4.8;;
12721;SDS011;6425;50.316;8.114;2023-10-13T13:45:00;6.7;;;4.8;;
12721;SDS011;6425;50.316;8.114;2023-10-13T13:48:00;12.1;;;4.7;;
12721;SDS011;6425;50.316;8.114;2023-10-13T13:51:02;9.1;;;4.6;;
12721;SDS011;6425;50.316;8.114;2023-10-13T13:54:00;6.1;;;4.6;;
12721;SDS011;6425;50.316;8.114;2023-10-13T13:57:00;7;;;4.3;;
12721;SDS011;6425;50.316;8.114;2023-10-13T14:00:00;7;;;4.3;;
12721;SDS011;6425;50.316;8.114;2023-10-13T14:03:00;9.7;;;4.6;;
12721;SDS011;6425;50.316;8.114;2023-10-13T14:06:00;8.5;;;4.5;;
12721;SDS011;6425;50.316;8.114;2023-10-13T14:09:00;8.1;;;4.5;;
12721;SDS011;6425;50.316;8.114;2023-10-13T14:12:00;7.2;;;4.5;;
12721;SDS011;6425;50.316;8.114;2023-10-13T14:15:00;7.2;;;4.5;;
12721;SDS011;6425;50.316;8.114;2023-10-13T14:18:00;7.5;;;4.6;;
12721;SDS011;6425;50.316;8.114;2023-10-13T14:21:00;9.6;;;4.5;;
12721;SDS011;6425;50.316;8.114;2023-10-13T14:24:00;9.6;;;4.5;;
12721;SDS011;6425;50.316;8.114;2023-10-13T14:27:00;8.6;;;5.3;;
12721;SDS011;6425;50.316;8.114;2023-10-13T14:30:00;8.6;;;5.3;;
12721;SDS011;6425;50.316;8.114;2023-10-13T14:33:00;6.8;;;4.2;;
12721;SDS011;6425;50.316;8.114;2023-10-13T14:36:00;9.5;;;4.9;;
12721;SDS011;6425;50.316;8.114;2023-10-13T14:39:00;9.5;;;4.9;;
12721;SDS011;6425;50.316;8.114;2023-10-13T14:42:00;9.2;;;4.5;;
12721;SDS011;6425;50.316;8.114;2023-10-13T14:45:00;9.2;;;4.5;;
12721;SDS011;6425;50.316;8.114;2023-10-13T14:48:00;9.4;;;4.7;;
12721;SDS011;6425;50.316;8.114;2023-10-13T14:51:00;7.5;;;4.4;;
12721;SDS011;6425;50.316;8.114;2023-10-13T14:54:00;7.5;;;4.4;;
12721;SDS011;6425;50.316;8.114;2023-10-13T14:57:00;7.2;;;4.1;;
12721;SDS011;6425;50.316;8.114;2023-10-13T15:00:00;7.2;;;4.1;;
12721;SDS011;6425;50.316;8.114;2023-10-13T15:03:00;8.9;;;4.3;;
12721;SDS011;6425;50.316;8.114;2023-10-13T15:06:00;7.3;;;4.7;;
12721;SDS011;6425;50.316;8.114;2023-10-13T15:09:00;7.3;;;4.7;;
12721;SDS011;6425;50.316;8.114;2023-10-13T15:12:00;8.6;;;4.4;;
12721;SDS011;6425;50.316;8.114;2023-10-13T15:15:00;8.6;;;4.4;;
12721;SDS011;6425;50.316;8.114;2023-10-13T15:18:00;9.4;;;4.4;;
12721;SDS011;6425;50.316;8.114;2023-10-13T15:21:00;6.5;;;4.2;;
12721;SDS011;6425;50.316;8.114;2023-10-13T15:24:00;6.5;;;4.2;;
12721;SDS011;6425;50.316;8.114;2023-10-13T15:27:00;7.1;;;4.3;;
12721;SDS011;6425;50.316;8.114;2023-10-13T15:30:00;7.1;;;4.3;;
12721;SDS011;6425;50.316;8.114;2023-10-13T15:33:00;8.5;;;5;;
12721;SDS011;6425;50.316;8.114;2023-10-13T15:36:00;6.7;;;4.3;;
12721;SDS011;6425;50.316;8.114;2023-10-13T15:39:00;6.7;;;4.3;;
12721;SDS011;6425;50.316;8.114;2023-10-13T15:42:00;6.3;;;4.2;;
12721;SDS011;6425;50.316;8.114;2023-10-13T15:45:00;6.3;;;4.2;;
12721;SDS011;6425;50.316;8.114;2023-10-13T15:48:00;9.3;;;4.7;;
12721;SDS011;6425;50.316;8.114;2023-10-13T15:51:00;8.6;;;4.3;;
12721;SDS011;6425;50.316;8.114;2023-10-13T15:54:00;8.6;;;4.3;;
12721;SDS011;6425;50.316;8.114;2023-10-13T15:57:00;8.3;;;4.3;;
12721;SDS011;6425;50.316;8.114;2023-10-13T16:00:00;8.3;;;4.3;;
12721;SDS011;6425;50.316;8.114;2023-10-13T16:03:00;8;;;4.5;;
12721;SDS011;6425;50.316;8.114;2023-10-13T16:06:01;8.3;;;4.4;;
12721;SDS011;6425;50.316;8.114;2023-10-13T16:09:00;8.3;;;4.4;;
12721;SDS011;6425;50.316;8.114;2023-10-13T16:12:00;8;;;4.2;;
12721;SDS011;6425;50.316;8.114;2023-10-13T16:15:00;8;;;4.2;;
12721;SDS011;6425;50.316;8.114;2023-10-13T16:18:00;7.6;;;4.8;;
12721;SDS011;6425;50.316;8.114;2023-10-13T16:21:00;7.3;;;4.4;;
12721;SDS011;6425;50.316;8.114;2023-10-13T16:24:00;7.3;;;4.4;;
12721;SDS011;6425;50.316;8.114;2023-10-13T16:27:00;9.1;;;4.8;;
12721;SDS011;6425;50.316;8.114;2023-10-13T16:30:00;9.1;;;4.8;;
12721;SDS011;6425;50.316;8.114;2023-10-13T16:33:00;7.3;;;4;;
12721;SDS011;6425;50.316;8.114;2023-10-13T16:36:00;9.9;;;4.8;;
12721;SDS011;6425;50.316;8.114;2023-10-13T16:39:00;9.9;;;4.8;;
12721;SDS011;6425;50.316;8.114;2023-10-13T16:42:00;11.4;;;4.7;;
12721;SDS011;6425;50.316;8.114;2023-10-13T16:45:00;11.4;;;4.7;;
12721;SDS011;6425;50.316;8.114;2023-10-13T16:48:00;6.6;;;4.2;;
12721;SDS011;6425;50.316;8.114;2023-10-13T16:51:00;7.6;;;4.2;;
12721;SDS011;6425;50.316;8.114;2023-10-13T16:54:00;7.6;;;4.2;;
12721;SDS011;6425;50.316;8.114;2023-10-13T16:57:00;6.1;;;4.3;;
12721;SDS011;6425;50.316;8.114;2023-10-13T17:00:00;6.1;;;4.3;;
12721;SDS011;6425;50.316;8.114;2023-10-13T17:03:00;8.3;;;4.2;;
12721;SDS011;6425;50.316;8.114;2023-10-13T17:06:00;7.8;;;3.9;;
12721;SDS011;6425;50.316;8.114;2023-10-13T17:09:00;7.8;;;3.9;;
12721;SDS011;6425;50.316;8.114;2023-10-13T17:12:00;6.6;;;4;;
12721;SDS011;6425;50.316;8.114;2023-10-13T17:15:00;6.6;;;4;;
12721;SDS011;6425;50.316;8.114;2023-10-13T17:18:00;5.8;;;4;;
12721;SDS011;6425;50.316;8.114;2023-10-13T17:21:00;8.3;;;4.5;;
12721;SDS011;6425;50.316;8.114;2023-10-13T17:24:00;8.3;;;4.5;;
12721;SDS011;6425;50.316;8.114;2023-10-13T17:27:00;6.8;;;3.9;;
12721;SDS011;6425;50.316;8.114;2023-10-13T17:30:00;6.8;;;3.9;;
12721;SDS011;6425;50.316;8.114;2023-10-13T17:33:00;6.6;;;3.7;;
12721;SDS011;6425;50.316;8.114;2023-10-13T17:36:00;10.3;;;4.2;;
12721;SDS011;6425;50.316;8.114;2023-10-13T17:39:00;10.3;;;4.2;;
12721;SDS011;6425;50.316;8.114;2023-10-13T17:42:00;7.5;;;3.8;;
12721;SDS011;6425;50.316;8.114;2023-10-13T17:45:00;7.5;;;3.8;;
12721;SDS011;6425;50.316;8.114;2023-10-13T17:48:00;8.5;;;3.6;;
12721;SDS011;6425;50.316;8.114;2023-10-13T17:51:02;6.8;;;3.7;;
12721;SDS011;6425;50.316;8.114;2023-10-13T17:54:00;6.8;;;3.7;;
12721;SDS011;6425;50.316;8.114;2023-10-13T17:57:00;7.7;;;3.9;;
12721;SDS011;6425;50.316;8.114;2023-10-13T18:00:00;7.7;;;3.9;;
12721;SDS011;6425;50.316;8.114;2023-10-13T18:03:00;4.8;;;3.3;;
12721;SDS011;6425;50.316;8.114;2023-10-13T18:06:00;5.7;;;3.5;;
12721;SDS011;6425;50.316;8.114;2023-10-13T18:09:00;5.7;;;3.5;;
12721;SDS011;6425;50.316;8.114;2023-10-13T18:12:00;8.3;;;3.7;;
12721;SDS011;6425;50.316;8.114;2023-10-13T18:15:00;8.3;;;3.7;;
12721;SDS011;6425;50.316;8.114;2023-10-13T18:18:00;6.6;;;3.5;;
12721;SDS011;6425;50.316;8.114;2023-10-13T18:21:00;6;;;3.5;;
12721;SDS011;6425;50.316;8.114;2023-10-13T18:24:00;6;;;3.5;;
12721;SDS011;6425;50.316;8.114;2023-10-13T18:27:00;6.3;;;3.4;;
12721;SDS011;6425;50.316;8.114;2023-10-13T18:30:00;6.3;;;3.4;;
12721;SDS011;6425;50.316;8.114;2023-10-13T18:33:00;6.5;;;3.4;;
12721;SDS011;6425;50.316;8.114;2023-10-13T18:36:16;6.7;;;3.2;;
12721;SDS011;6425;50.316;8.114;2023-10-13T18:39:00;6.7;;;3.2;;
12721;SDS011;6425;50.316;8.114;2023-10-13T18:42:00;5.1;;;3.3;;
12721;SDS011;6425;50.316;8.114;2023-10-13T18:45:00;5.1;;;3.3;;
12721;SDS011;6425;50.316;8.114;2023-10-13T18:48:00;5.6;;;3.4;;
12721;SDS011;6425;50.316;8.114;2023-10-13T18:51:02;5.5;;;3.1;;
12721;SDS011;6425;50.316;8.114;2023-10-13T18:54:00;5.5;;;3.1;;